Terminal Aerodrome Forecast
Issued by NWS

Home | Current Version | Previous Version | Text Only | Print | Product List | Glossary On
Versions: 1 2 3 4 5 6 7 8 9 10 11 12
000
FTUS45 KVEF 301700
TAFDAG
TAF
KDAG 301720Z 3018/3118 28012KT P6SM FEW250
     FM302000 31012G20KT P6SM FEW250
     FM302300 27018G28KT P6SM SCT250
     FM310400 28012G22KT P6SM SKC=

USA.gov is the U.S. government's official web portal to all federal, state and local government web resources and services.